Time;durP1;ratioP1;P1;durP2;ratioP2;P2;SDS_P1;SDS_P2;PMS_P1;PMS_P2;Temp;Humidity;BMP_temperature;BMP_pressure;BME280_temperature;BME280_humidity;BME280_pressure;Samples;Min_cycle;Max_cycle;Signal;HPM_P1;HPM_P2
2022/12/01 00:00:58;;;;;;;36.00;19.25;;;3.60;10.20;;;;;;7362154;19;20006;-69
2022/12/01 00:03:32;;;;;;;34.78;19.58;;;3.70;11.00;;;;;;7389480;19;20014;-70
2022/12/01 00:06:03;;;;;;;35.78;19.08;;;3.70;11.40;;;;;;7365877;19;20436;-69
2022/12/01 00:08:36;;;;;;;39.25;20.63;;;3.70;11.40;;;;;;7367198;19;20470;-70
2022/12/01 00:11:04;;;;;;;38.88;19.92;;;3.70;10.60;;;;;;7364557;19;19998;-70
2022/12/01 00:13:35;;;;;;;33.72;19.17;;;3.60;11.70;;;;;;7368826;19;20015;-70
2022/12/01 00:16:12;;;;;;;35.90;19.45;;;3.60;10.90;;;;;;7366098;19;20014;-70
2022/12/01 00:18:42;;;;;;;32.95;19.05;;;3.60;10.30;;;;;;7367911;19;20017;-72
2022/12/01 00:21:15;;;;;;;33.30;18.58;;;3.60;10.60;;;;;;7385847;19;20009;-70
2022/12/01 00:23:50;;;;;;;33.80;19.85;;;3.60;10.60;;;;;;7367011;19;20002;-70
2022/12/01 00:26:21;;;;;;;37.30;19.30;;;3.60;11.00;;;;;;7364308;19;20011;-70
2022/12/01 00:28:51;;;;;;;33.15;19.88;;;3.60;10.90;;;;;;7363374;19;20356;-70
2022/12/01 00:31:22;;;;;;;36.70;19.38;;;3.60;11.00;;;;;;7364479;19;20006;-72
2022/12/01 00:33:52;;;;;;;36.17;20.20;;;3.60;11.70;;;;;;7369768;19;20477;-69
2022/12/01 00:36:21;;;;;;;33.40;18.95;;;3.60;10.70;;;;;;7384838;19;20676;-70
2022/12/01 00:38:57;;;;;;;36.72;19.20;;;3.50;11.40;;;;;;7364870;19;20006;-70
2022/12/01 00:41:27;;;;;;;37.40;19.98;;;3.50;10.50;;;;;;7361781;19;20006;-71
2022/12/01 00:43:57;;;;;;;34.17;20.42;;;3.60;10.70;;;;;;7367136;19;20007;-71
2022/12/01 00:46:27;;;;;;;35.90;18.88;;;3.50;9.90;;;;;;7363417;19;20494;-70
2022/12/01 00:48:56;;;;;;;31.98;18.73;;;3.60;10.10;;;;;;7364711;19;20018;-71
2022/12/01 00:51:26;;;;;;;37.83;20.30;;;3.60;10.40;;;;;;7383805;19;20022;-69
2022/12/01 00:53:59;;;;;;;32.80;19.45;;;3.70;10.90;;;;;;7366161;19;20449;-70
2022/12/01 00:56:29;;;;;;;34.85;20.45;;;3.60;10.50;;;;;;7360922;19;20042;-71
2022/12/01 00:58:58;;;;;;;33.25;18.95;;;3.60;10.10;;;;;;7363352;19;20018;-70
2022/12/01 01:01:28;;;;;;;33.67;18.90;;;3.60;9.90;;;;;;7361809;19;20011;-71
2022/12/01 01:04:00;;;;;;;33.08;18.65;;;3.60;8.60;;;;;;7365724;19;20043;-70
2022/12/01 01:06:29;;;;;;;34.15;20.20;;;3.60;8.90;;;;;;7385018;19;20011;-70
2022/12/01 01:09:02;;;;;;;35.88;19.50;;;3.60;8.40;;;;;;7363349;19;20014;-70
2022/12/01 01:11:32;;;;;;;34.08;19.88;;;3.60;8.90;;;;;;7361357;19;20018;-71
2022/12/01 01:14:02;;;;;;;34.08;19.25;;;3.60;8.90;;;;;;7366676;19;20016;-70
2022/12/01 01:16:32;;;;;;;32.90;18.88;;;3.60;8.90;;;;;;7362610;19;20497;-70
2022/12/01 01:19:02;;;;;;;33.78;19.52;;;3.50;8.00;;;;;;7362544;19;20371;-70
2022/12/01 01:21:32;;;;;;;38.53;20.40;;;3.50;8.00;;;;;;7384903;19;20030;-70
2022/12/01 01:24:05;;;;;;;35.70;19.73;;;3.50;8.60;;;;;;7364829;19;20470;-70
2022/12/01 01:26:36;;;;;;;31.75;19.30;;;3.50;8.00;;;;;;7361950;19;20019;-70
2022/12/01 01:29:07;;;;;;;32.75;18.70;;;3.60;8.10;;;;;;7362427;19;20018;-70
2022/12/01 01:31:38;;;;;;;33.10;18.83;;;3.60;8.60;;;;;;7362750;19;20011;-70
2022/12/01 01:34:07;;;;;;;32.55;19.38;;;3.60;8.10;;;;;;7367976;19;20010;-71
2022/12/01 01:36:37;;;;;;;34.03;20.23;;;3.60;8.10;;;;;;7384411;19;20018;-72
2022/12/01 01:39:09;;;;;;;33.47;18.13;;;3.50;8.00;;;;;;7363969;19;20018;-71
2022/12/01 01:41:39;;;;;;;30.65;18.58;;;3.50;8.50;;;;;;7361183;19;20011;-71
2022/12/01 01:44:39;;;;;;;31.98;17.83;;;3.50;8.00;;;;;;7366047;19;20065;-71
2022/12/01 01:47:09;;;;;;;31.70;17.60;;;3.50;8.10;;;;;;7364096;19;20019;-70
2022/12/01 01:49:39;;;;;;;32.00;17.58;;;3.40;8.30;;;;;;7363266;19;20013;-71
2022/12/01 01:52:09;;;;;;;30.63;17.25;;;3.40;9.10;;;;;;7360907;19;20014;-71
2022/12/01 01:54:46;;;;;;;35.38;17.80;;;3.30;8.40;;;;;;7387067;19;20018;-76
2022/12/01 01:57:22;;;;;;;29.92;17.38;;;3.40;9.20;;;;;;7384835;19;20084;-71
2022/12/01 01:59:55;;;;;;;32.33;17.85;;;3.40;8.00;;;;;;7362028;19;20010;-71
2022/12/01 02:02:26;;;;;;;31.80;17.63;;;3.40;8.40;;;;;;7362168;19;20010;-71
2022/12/01 02:05:00;;;;;;;31.65;18.00;;;3.30;8.10;;;;;;7364907;19;20015;-71
2022/12/01 02:07:30;;;;;;;26.73;15.40;;;3.30;8.10;;;;;;7363205;19;20021;-70
2022/12/01 02:10:03;;;;;;;30.55;17.20;;;3.30;7.90;;;;;;7362247;19;20007;-70
2022/12/01 02:12:50;;;;;;;27.73;15.50;;;3.30;7.90;;;;;;7384178;19;20019;-70
2022/12/01 02:15:31;;;;;;;26.77;16.33;;;3.30;7.00;;;;;;7363986;19;20010;-70
2022/12/01 02:18:16;;;;;;;26.67;15.90;;;3.30;7.80;;;;;;7362261;19;20009;-70
2022/12/01 02:21:15;;;;;;;30.30;15.88;;;3.40;7.00;;;;;;7363106;19;20479;-71
2022/12/01 02:24:08;;;;;;;26.13;16.15;;;3.30;6.20;;;;;;7372140;19;20014;-71
2022/12/01 02:26:50;;;;;;;29.13;16.60;;;3.40;6.90;;;;;;7367942;19;20006;-71
2022/12/01 02:29:43;;;;;;;29.83;17.15;;;3.30;6.10;;;;;;7369674;19;20573;-72
2022/12/01 02:32:23;;;;;;;24.95;14.95;;;3.40;6.40;;;;;;7368691;19;20583;-72
2022/12/01 02:34:58;;;;;;;30.70;16.13;;;3.30;4.90;;;;;;7372457;19;20006;-72
2022/12/01 02:37:35;;;;;;;25.77;15.27;;;3.30;5.70;;;;;;7369763;19;19999;-71
2022/12/01 02:40:13;;;;;;;24.98;15.13;;;3.20;3.50;;;;;;7387645;19;20022;-71
2022/12/01 02:42:53;;;;;;;25.48;13.70;;;3.20;4.60;;;;;;7369840;19;20010;-71
2022/12/01 02:45:30;;;;;;;27.00;14.98;;;3.30;4.90;;;;;;7311862;19;20371;-71
2022/12/01 02:48:06;;;;;;;29.02;15.18;;;3.20;3.90;;;;;;7392528;19;20022;-70
2022/12/01 02:50:39;;;;;;;24.85;14.32;;;3.20;4.10;;;;;;7362994;19;20010;-71
2022/12/01 02:53:17;;;;;;;25.73;13.73;;;3.20;4.10;;;;;;7373137;19;20550;-70
2022/12/01 02:55:51;;;;;;;24.92;14.85;;;3.10;4.10;;;;;;7384130;19;20015;-70
2022/12/01 02:58:22;;;;;;;27.05;14.90;;;3.00;4.40;;;;;;7389722;19;20010;-70
2022/12/01 03:01:05;;;;;;;27.15;15.82;;;3.00;4.70;;;;;;7364520;19;20107;-70
2022/12/01 03:03:50;;;;;;;26.02;15.45;;;3.10;5.20;;;;;;7372050;19;20044;-71
2022/12/01 03:06:30;;;;;;;25.38;15.40;;;3.10;5.90;;;;;;7368069;19;20027;-70
2022/12/01 03:09:11;;;;;;;29.13;15.25;;;3.10;5.60;;;;;;7369017;19;20562;-71
2022/12/01 03:11:51;;;;;;;25.90;14.85;;;3.10;5.60;;;;;;7365225;19;20558;-70
2022/12/01 03:14:33;;;;;;;25.85;15.32;;;3.10;5.50;;;;;;7370428;19;20026;-69
2022/12/01 03:17:09;;;;;;;27.27;16.00;;;3.00;5.80;;;;;;7369009;19;20020;-70
2022/12/01 03:19:45;;;;;;;28.83;15.60;;;3.10;6.60;;;;;;7388815;19;20013;-70
2022/12/01 03:22:23;;;;;;;25.70;15.10;;;3.10;6.50;;;;;;7366492;19;20041;-70
2022/12/01 03:24:57;;;;;;;27.73;15.75;;;3.10;7.00;;;;;;7368872;19;20078;-70
2022/12/01 03:27:31;;;;;;;25.20;13.93;;;3.10;6.30;;;;;;7367093;19;20078;-70
2022/12/01 03:30:09;;;;;;;29.58;16.42;;;3.10;5.60;;;;;;7368013;19;20017;-71
2022/12/01 03:32:45;;;;;;;29.63;16.75;;;3.10;6.10;;;;;;7367765;19;20014;-70
2022/12/01 03:35:25;;;;;;;29.05;16.58;;;3.20;6.40;;;;;;7370106;19;20494;-70
2022/12/01 03:37:58;;;;;;;29.92;17.60;;;3.10;6.60;;;;;;7367437;19;20020;-71
2022/12/01 03:40:31;;;;;;;31.05;17.67;;;3.20;5.40;;;;;;7385163;19;20491;-71
2022/12/01 03:43:06;;;;;;;32.58;17.88;;;3.10;5.20;;;;;;7369705;19;20026;-71
2022/12/01 03:45:43;;;;;;;30.92;18.83;;;3.10;5.60;;;;;;7366077;19;20010;-70
2022/12/01 03:48:13;;;;;;;30.67;17.90;;;3.10;6.10;;;;;;7368631;19;20014;-70
2022/12/01 03:50:56;;;;;;;32.33;17.02;;;3.20;6.10;;;;;;7364976;19;20363;-71
2022/12/01 03:53:34;;;;;;;30.40;17.27;;;3.20;5.40;;;;;;7370284;19;20017;-71
2022/12/01 03:56:07;;;;;;;35.08;18.35;;;3.10;4.50;;;;;;7366114;19;20011;-71
2022/12/01 03:58:41;;;;;;;36.78;18.70;;;3.10;5.80;;;;;;7389745;19;20010;-71
2022/12/01 04:01:12;;;;;;;34.92;18.77;;;3.10;5.30;;;;;;7364257;19;20007;-71
2022/12/01 04:03:41;;;;;;;31.10;18.27;;;3.10;6.10;;;;;;7369134;19;20018;-71
2022/12/01 04:06:14;;;;;;;35.47;18.63;;;3.20;6.60;;;;;;7365584;19;20469;-71
2022/12/01 04:08:44;;;;;;;32.38;18.58;;;3.20;6.60;;;;;;7368316;19;20015;-71
2022/12/01 04:14:01;;;;;;;34.63;19.88;;;3.10;6.30;;;;;;7370032;19;20014;-71
2022/12/01 04:16:30;;;;;;;33.22;19.02;;;3.10;6.90;;;;;;7388146;19;20014;-71
2022/12/01 04:19:00;;;;;;;32.72;19.02;;;3.10;7.20;;;;;;7366566;19;20014;-71
2022/12/01 04:21:33;;;;;;;32.72;19.20;;;3.10;7.30;;;;;;7363855;19;20022;-71
2022/12/01 04:24:02;;;;;;;34.75;19.15;;;3.10;7.70;;;;;;7369018;19;20363;-71
2022/12/01 04:26:35;;;;;;;34.40;18.35;;;3.00;6.70;;;;;;7363906;19;20037;-71
2022/12/01 04:29:07;;;;;;;32.83;19.33;;;3.00;6.80;;;;;;7367654;19;20014;-71
2022/12/01 04:31:37;;;;;;;30.92;18.17;;;3.10;7.60;;;;;;7385796;19;20010;-71
2022/12/01 04:34:08;;;;;;;34.95;19.38;;;3.10;7.80;;;;;;7368449;19;20011;-71
2022/12/01 04:36:40;;;;;;;30.70;16.65;;;3.10;7.80;;;;;;7364634;19;20035;-71
2022/12/01 04:39:10;;;;;;;33.85;17.10;;;3.10;7.80;;;;;;7366984;19;20018;-70
2022/12/01 04:41:39;;;;;;;28.75;17.40;;;3.10;9.90;;;;;;7363256;19;20014;-70
2022/12/01 04:44:11;;;;;;;27.88;16.23;;;3.10;9.80;;;;;;7367299;19;20083;-71
2022/12/01 04:46:41;;;;;;;28.55;17.00;;;3.00;9.60;;;;;;7384059;19;20486;-70
2022/12/01 04:49:11;;;;;;;31.92;18.27;;;2.90;10.80;;;;;;7365749;19;20017;-71
2022/12/01 04:51:43;;;;;;;32.45;17.88;;;2.90;11.30;;;;;;7362316;19;20119;-71
2022/12/01 04:54:14;;;;;;;32.33;18.17;;;2.90;11.50;;;;;;7369411;19;20027;-71
2022/12/01 04:56:44;;;;;;;33.97;18.25;;;2.90;11.40;;;;;;7364234;19;20024;-71
2022/12/01 04:59:14;;;;;;;31.42;17.00;;;2.90;11.30;;;;;;7366913;19;20018;-71
2022/12/01 05:01:45;;;;;;;34.08;18.15;;;2.90;11.30;;;;;;7383576;19;20026;-71
2022/12/01 05:04:16;;;;;;;30.10;16.25;;;2.90;11.60;;;;;;7367986;19;20086;-71
2022/12/01 05:06:48;;;;;;;37.03;19.08;;;2.90;12.20;;;;;;7365264;19;20498;-71
2022/12/01 05:09:20;;;;;;;33.92;18.40;;;2.80;11.20;;;;;;7365609;19;20003;-71
2022/12/01 05:11:49;;;;;;;34.75;17.40;;;2.90;12.30;;;;;;7361791;19;20014;-69
2022/12/01 05:14:19;;;;;;;32.03;17.48;;;2.90;11.30;;;;;;7368592;19;20505;-70
2022/12/01 05:16:49;;;;;;;31.75;17.58;;;2.90;11.20;;;;;;7365214;19;20474;-70
2022/12/01 05:22:04;;;;;;;33.30;18.73;;;3.00;11.30;;;;;;7361445;19;20507;-70
2022/12/01 05:24:33;;;;;;;34.10;18.50;;;3.00;11.30;;;;;;7365893;19;20014;-69
2022/12/01 05:27:03;;;;;;;32.13;17.33;;;2.90;10.20;;;;;;7363606;19;20063;-70
2022/12/01 05:29:34;;;;;;;32.60;17.83;;;2.90;10.30;;;;;;7364816;19;20429;-70
2022/12/01 05:32:04;;;;;;;34.92;18.23;;;2.90;9.60;;;;;;7360649;19;20019;-70
2022/12/01 05:34:34;;;;;;;34.40;19.02;;;2.90;10.10;;;;;;7387367;19;20429;-70
2022/12/01 05:37:07;;;;;;;36.28;18.20;;;2.90;11.20;;;;;;7363282;19;20034;-70
2022/12/01 05:39:36;;;;;;;32.97;18.77;;;3.00;11.10;;;;;;7363524;19;20028;-70
2022/12/01 05:42:06;;;;;;;33.22;18.67;;;3.00;10.20;;;;;;7359323;19;20015;-70
2022/12/01 05:44:36;;;;;;;33.00;18.92;;;3.00;9.90;;;;;;7366223;19;20503;-70
2022/12/01 05:47:06;;;;;;;33.70;19.30;;;3.00;10.10;;;;;;7362642;19;20030;-71
2022/12/01 05:49:36;;;;;;;34.65;18.88;;;3.00;10.10;;;;;;7384638;19;20041;-72
2022/12/01 05:52:08;;;;;;;35.88;19.23;;;3.00;10.20;;;;;;7359134;19;20009;-71
2022/12/01 05:54:38;;;;;;;35.63;19.90;;;3.00;10.70;;;;;;7365695;19;20019;-70
2022/12/01 05:57:08;;;;;;;35.17;19.77;;;3.00;10.00;;;;;;7363336;19;20018;-70
2022/12/01 05:59:38;;;;;;;36.58;20.10;;;3.00;10.30;;;;;;7364480;19;20017;-70
2022/12/01 06:02:07;;;;;;;34.10;18.92;;;2.90;10.30;;;;;;7360124;19;20055;-70
2022/12/01 06:04:37;;;;;;;39.88;20.25;;;2.90;11.10;;;;;;7387534;19;20023;-70
2022/12/01 06:07:10;;;;;;;40.15;21.10;;;2.90;11.30;;;;;;7363333;19;20038;-70
2022/12/01 06:09:40;;;;;;;35.45;18.63;;;2.80;11.20;;;;;;7363558;19;20007;-70
2022/12/01 06:12:09;;;;;;;36.03;18.95;;;2.90;11.80;;;;;;7359537;19;20086;-70
2022/12/01 06:14:39;;;;;;;33.15;18.27;;;2.90;11.30;;;;;;7364125;19;21395;-70
2022/12/01 06:17:10;;;;;;;30.10;18.08;;;2.90;11.40;;;;;;7363348;19;20034;-70
2022/12/01 06:19:42;;;;;;;37.83;19.75;;;2.90;11.60;;;;;;7384469;19;20078;-69
2022/12/01 06:22:14;;;;;;;33.13;17.98;;;2.90;11.70;;;;;;7358811;19;20013;-70
2022/12/01 06:24:44;;;;;;;32.33;19.05;;;2.80;11.70;;;;;;7363237;19;20009;-69
2022/12/01 06:27:14;;;;;;;35.08;19.58;;;2.90;11.80;;;;;;7363580;19;20034;-70
2022/12/01 06:29:44;;;;;;;32.53;18.70;;;2.90;11.30;;;;;;7363450;19;20371;-69
2022/12/01 06:32:14;;;;;;;34.40;19.42;;;2.80;11.20;;;;;;7357810;19;20456;-70
2022/12/01 06:34:43;;;;;;;35.45;19.70;;;2.80;11.50;;;;;;7385159;19;20498;-70
2022/12/01 06:37:16;;;;;;;36.33;20.58;;;2.80;11.90;;;;;;7361597;19;20030;-69
2022/12/01 06:39:46;;;;;;;40.15;20.05;;;2.70;11.70;;;;;;7361592;19;20057;-70
2022/12/01 06:42:17;;;;;;;34.83;19.45;;;2.80;11.80;;;;;;7358178;19;20015;-70
2022/12/01 06:44:46;;;;;;;34.95;19.92;;;2.80;11.90;;;;;;7362024;19;20445;-70
2022/12/01 06:47:17;;;;;;;34.90;19.33;;;2.80;12.50;;;;;;7361916;19;20525;-71
2022/12/01 06:49:49;;;;;;;38.03;21.08;;;2.80;11.50;;;;;;7360926;19;20107;-71
2022/12/01 06:52:22;;;;;;;37.38;19.65;;;2.80;11.90;;;;;;7377905;19;20027;-71
2022/12/01 06:54:52;;;;;;;37.10;19.17;;;2.80;12.10;;;;;;7362180;19;20482;-71
2022/12/01 06:57:22;;;;;;;34.70;18.52;;;2.70;12.10;;;;;;7362157;19;20387;-71
2022/12/01 06:59:52;;;;;;;34.35;18.75;;;2.80;12.30;;;;;;7362265;19;20470;-70
2022/12/01 07:02:22;;;;;;;31.35;18.02;;;2.80;12.20;;;;;;7357271;19;20018;-70
2022/12/01 07:04:52;;;;;;;32.78;18.08;;;2.80;12.30;;;;;;7362217;19;20095;-71
2022/12/01 07:07:24;;;;;;;32.22;17.95;;;2.80;13.10;;;;;;7388665;19;20016;-70
2022/12/01 07:09:54;;;;;;;31.15;18.92;;;2.80;12.20;;;;;;7367252;19;20006;-70
2022/12/01 07:12:24;;;;;;;32.58;18.23;;;2.90;13.30;;;;;;7365349;19;20035;-70
2022/12/01 07:14:54;;;;;;;30.98;17.67;;;2.90;12.10;;;;;;7369331;19;20090;-70
2022/12/01 07:17:23;;;;;;;31.80;18.20;;;2.90;12.40;;;;;;7367821;19;20018;-70
2022/12/01 07:19:53;;;;;;;31.83;18.55;;;2.80;11.90;;;;;;7367973;19;20473;-70
2022/12/01 07:22:26;;;;;;;35.53;19.05;;;2.90;12.80;;;;;;7386155;19;20014;-71
2022/12/01 07:25:01;;;;;;;29.98;17.05;;;2.80;12.10;;;;;;7368261;19;20019;-71
2022/12/01 07:27:32;;;;;;;31.88;18.45;;;2.80;12.10;;;;;;7366985;19;20014;-71
2022/12/01 07:30:02;;;;;;;32.72;18.23;;;2.90;13.00;;;;;;7368436;19;20042;-71
2022/12/01 07:32:32;;;;;;;34.80;17.13;;;2.80;12.50;;;;;;7364476;19;20063;-70
2022/12/01 07:35:01;;;;;;;31.98;17.98;;;2.90;12.80;;;;;;7365416;19;20474;-70
2022/12/01 07:37:34;;;;;;;30.88;17.05;;;2.90;12.80;;;;;;7389120;19;20102;-70
2022/12/01 07:40:04;;;;;;;31.63;16.88;;;2.90;12.20;;;;;;7365606;19;20010;-70
2022/12/01 07:42:33;;;;;;;28.98;15.98;;;2.90;12.40;;;;;;7364059;19;20025;-70
2022/12/01 07:45:03;;;;;;;28.63;15.60;;;3.00;11.40;;;;;;7367752;19;20490;-71
2022/12/01 07:47:33;;;;;;;32.25;17.33;;;2.90;12.20;;;;;;7367932;19;20018;-70
2022/12/01 07:50:03;;;;;;;35.92;18.02;;;2.90;12.10;;;;;;7365805;19;20371;-70
2022/12/01 07:52:35;;;;;;;35.72;18.08;;;2.80;12.10;;;;;;7384334;19;20382;-70
2022/12/01 07:55:06;;;;;;;33.22;17.48;;;2.80;12.10;;;;;;7367878;19;20009;-70
2022/12/01 07:57:35;;;;;;;30.48;17.48;;;2.80;12.50;;;;;;7367505;19;20014;-71
2022/12/01 08:00:06;;;;;;;37.08;18.40;;;2.80;12.80;;;;;;7366717;19;20606;-72
2022/12/01 08:02:36;;;;;;;33.75;18.48;;;2.90;13.00;;;;;;7364378;19;20014;-70
2022/12/01 08:05:07;;;;;;;32.47;17.95;;;3.00;12.40;;;;;;7368811;19;20026;-70
2022/12/01 08:07:39;;;;;;;30.75;17.08;;;3.00;12.30;;;;;;7387092;19;20046;-71
2022/12/01 08:10:10;;;;;;;32.40;18.25;;;3.00;12.70;;;;;;7364447;19;20003;-70
2022/12/01 08:12:40;;;;;;;29.98;16.98;;;3.00;12.30;;;;;;7365439;19;20014;-71
2022/12/01 08:15:11;;;;;;;31.88;16.92;;;3.00;12.10;;;;;;7368326;19;20020;-71
2022/12/01 08:17:41;;;;;;;30.67;16.55;;;3.00;11.80;;;;;;7364109;19;20097;-71
2022/12/01 08:20:11;;;;;;;30.90;16.98;;;3.00;11.90;;;;;;7365034;19;20030;-71
2022/12/01 08:22:44;;;;;;;28.98;16.58;;;3.00;11.80;;;;;;7386502;19;20494;-71
2022/12/01 08:25:13;;;;;;;32.15;17.35;;;3.00;12.00;;;;;;7368162;19;20459;-71
2022/12/01 08:27:43;;;;;;;29.13;16.38;;;3.00;12.40;;;;;;7364639;19;20011;-72
2022/12/01 08:30:15;;;;;;;35.30;18.17;;;3.00;12.20;;;;;;7361901;19;20498;-69
2022/12/01 08:32:45;;;;;;;28.92;16.98;;;3.00;12.00;;;;;;7364317;19;20440;-70
2022/12/01 08:35:15;;;;;;;30.27;16.10;;;3.10;12.10;;;;;;7368404;19;20002;-70
2022/12/01 08:37:47;;;;;;;32.40;18.02;;;3.10;11.40;;;;;;7387591;19;20014;-71
2022/12/01 08:40:18;;;;;;;32.95;17.90;;;3.20;11.70;;;;;;7362914;19;20363;-72
2022/12/01 08:42:48;;;;;;;30.85;17.45;;;3.10;11.70;;;;;;7365108;19;20015;-71
2022/12/01 08:45:17;;;;;;;30.63;16.92;;;3.10;11.40;;;;;;7363798;19;20376;-71
2022/12/01 08:47:48;;;;;;;31.35;17.42;;;3.10;12.80;;;;;;7364670;19;20549;-70
2022/12/01 08:50:18;;;;;;;27.80;16.95;;;3.10;11.40;;;;;;7362298;19;20102;-70
2022/12/01 08:52:51;;;;;;;28.85;16.50;;;3.10;11.90;;;;;;7365401;19;20011;-74
2022/12/01 08:55:21;;;;;;;30.88;16.65;;;3.10;12.40;;;;;;7387996;19;20057;-71
2022/12/01 08:57:51;;;;;;;33.05;18.13;;;3.20;12.80;;;;;;7366222;19;20018;-70
2022/12/01 09:00:21;;;;;;;34.17;17.85;;;3.20;11.40;;;;;;7360933;19;20014;-71
2022/12/01 09:02:51;;;;;;;32.70;17.98;;;3.20;11.40;;;;;;7361425;19;20018;-70
2022/12/01 09:05:20;;;;;;;27.95;17.10;;;3.20;11.50;;;;;;7362851;19;20026;-70
2022/12/01 09:08:30;;;;;;;30.85;17.23;;;3.20;11.50;;;;;;7362224;19;20011;-71
2022/12/01 09:10:43;;;;;;;30.58;16.98;;;3.30;11.50;;;;;;7381657;19;20788;-70
2022/12/01 09:13:12;;;;;;;32.33;17.40;;;3.30;10.50;;;;;;7365793;19;20038;-70
2022/12/01 09:15:42;;;;;;;32.38;17.73;;;3.20;10.50;;;;;;7362632;19;20018;-70
2022/12/01 09:18:12;;;;;;;32.45;17.83;;;3.20;11.10;;;;;;7363168;19;20370;-70
2022/12/01 09:20:42;;;;;;;32.08;17.38;;;3.20;11.40;;;;;;7361219;19;20007;-72
2022/12/01 09:23:14;;;;;;;29.48;16.90;;;3.20;10.60;;;;;;7367077;19;20042;-70
2022/12/01 09:25:44;;;;;;;30.83;17.75;;;3.20;10.50;;;;;;7385000;19;20438;-71
2022/12/01 09:28:14;;;;;;;32.63;17.35;;;3.30;11.10;;;;;;7363161;19;20033;-72
2022/12/01 09:30:44;;;;;;;32.97;17.23;;;3.30;11.00;;;;;;7359601;19;20014;-72
2022/12/01 09:33:14;;;;;;;33.33;17.52;;;3.30;10.70;;;;;;7366466;19;20082;-71
2022/12/01 09:35:44;;;;;;;34.25;18.73;;;3.30;10.60;;;;;;7362777;19;20484;-70
2022/12/01 09:38:16;;;;;;;31.73;17.83;;;3.30;10.70;;;;;;7366613;19;21218;-70
2022/12/01 09:40:47;;;;;;;31.65;17.20;;;3.20;10.20;;;;;;7376663;19;20011;-72
2022/12/01 09:43:21;;;;;;;33.20;17.83;;;3.30;10.90;;;;;;7387159;19;20011;-71
2022/12/01 09:45:56;;;;;;;28.83;16.80;;;3.20;11.30;;;;;;7363250;19;20746;-71
2022/12/01 09:48:28;;;;;;;;;;;3.30;11.40;;;;;;7364602;19;20019;-70
2022/12/01 09:50:58;;;;;;;32.22;17.98;;;3.40;10.60;;;;;;7359948;19;19911;-70
2022/12/01 09:53:30;;;;;;;30.02;17.15;;;3.40;11.40;;;;;;7368234;19;20094;-71
2022/12/01 09:56:00;;;;;;;31.35;17.23;;;3.40;9.10;;;;;;7363763;19;20014;-70
2022/12/01 09:58:40;;;;;;;31.00;17.05;;;3.40;9.80;;;;;;7385191;19;20066;-71
2022/12/01 10:01:17;;;;;;;32.17;17.58;;;3.40;10.60;;;;;;7359020;19;20130;-71
2022/12/01 10:03:57;;;;;;;30.52;17.35;;;3.50;11.20;;;;;;7366038;19;20014;-71
2022/12/01 10:06:33;;;;;;;28.42;16.83;;;3.60;9.50;;;;;;7362828;19;20073;-70
2022/12/01 10:09:17;;;;;;;29.05;17.00;;;3.60;9.70;;;;;;7362317;19;20048;-71
2022/12/01 10:11:49;;;;;;;31.45;17.05;;;3.70;8.80;;;;;;7358218;19;20492;-70
2022/12/01 10:14:20;;;;;;;31.98;15.80;;;3.70;8.10;;;;;;7366367;19;20003;-72
2022/12/01 10:17:02;;;;;;;31.50;17.33;;;3.70;7.90;;;;;;7363579;19;20010;-72
2022/12/01 10:19:39;;;;;;;29.70;16.05;;;3.60;8.10;;;;;;7383733;19;20018;-72
2022/12/01 10:22:26;;;;;;;29.35;16.20;;;3.70;9.00;;;;;;7356369;19;20542;-72
2022/12/01 10:25:06;;;;;;;28.48;15.77;;;3.80;8.90;;;;;;7363682;19;20452;-72
2022/12/01 10:27:47;;;;;;;28.90;15.88;;;3.70;8.40;;;;;;7362162;19;20014;-71
2022/12/01 10:30:19;;;;;;;32.22;16.33;;;3.80;9.10;;;;;;7360483;19;20018;-71
2022/12/01 10:32:57;;;;;;;31.17;17.08;;;3.60;8.10;;;;;;7361720;19;20014;-71
2022/12/01 10:35:34;;;;;;;29.73;16.75;;;3.60;8.50;;;;;;7363624;19;20016;-70
2022/12/01 10:38:09;;;;;;;30.50;15.93;;;3.60;9.80;;;;;;7363195;19;20367;-70
2022/12/01 10:40:42;;;;;;;;;;;3.70;9.70;;;;;;7383164;19;20453;-70
2022/12/01 10:43:12;;;;;;;29.75;16.98;;;3.80;9.40;;;;;;7370462;19;20338;-72
2022/12/01 10:45:45;;;;;;;29.92;15.52;;;3.80;8.70;;;;;;7368717;19;20023;-71
2022/12/01 10:48:17;;;;;;;26.40;15.70;;;3.80;8.70;;;;;;7370059;19;20019;-70
2022/12/01 10:50:49;;;;;;;33.53;15.07;;;4.00;8.30;;;;;;7366312;19;20014;-72
2022/12/01 10:53:31;;;;;;;26.75;14.63;;;3.90;8.10;;;;;;7369986;19;20006;-71
2022/12/01 10:56:08;;;;;;;27.95;15.52;;;4.00;7.20;;;;;;7369329;19;20470;-72
2022/12/01 10:58:46;;;;;;;27.23;14.48;;;3.90;6.60;;;;;;7391690;19;20017;-71
2022/12/01 11:01:23;;;;;;;25.13;14.38;;;3.80;7.30;;;;;;7364426;19;20017;-71
2022/12/01 11:03:56;;;;;;;26.80;15.43;;;3.80;8.20;;;;;;7370836;19;20014;-71
2022/12/01 11:06:29;;;;;;;28.10;16.00;;;3.80;7.20;;;;;;7369143;19;20502;-71
2022/12/01 11:09:01;;;;;;;27.48;14.57;;;3.80;8.20;;;;;;7368297;19;20014;-71
2022/12/01 11:11:36;;;;;;;27.23;15.30;;;3.70;7.60;;;;;;7365616;19;20077;-70
2022/12/01 11:14:09;;;;;;;25.75;14.48;;;3.80;7.90;;;;;;7371306;19;20106;-70
2022/12/01 11:16:42;;;;;;;29.83;15.20;;;3.90;8.30;;;;;;7388571;19;20018;-69
2022/12/01 11:19:22;;;;;;;28.25;15.30;;;4.00;7.90;;;;;;7366347;19;20021;-70
2022/12/01 11:21:58;;;;;;;27.48;14.65;;;4.00;8.30;;;;;;7362337;19;20428;-71
2022/12/01 11:24:40;;;;;;;26.35;14.77;;;4.00;7.20;;;;;;7368253;19;20053;-72
2022/12/01 11:27:19;;;;;;;24.60;13.93;;;4.00;6.90;;;;;;7367019;19;20014;-71
2022/12/01 11:29:52;;;;;;;26.98;15.38;;;4.00;6.40;;;;;;7367169;19;20002;-73
2022/12/01 11:32:25;;;;;;;30.08;15.10;;;4.20;7.50;;;;;;7362097;19;20189;-71
2022/12/01 11:34:59;;;;;;;28.10;14.88;;;4.20;5.50;;;;;;7366924;19;20003;-71
2022/12/01 11:37:32;;;;;;;26.15;14.00;;;4.10;6.00;;;;;;7390713;19;20018;-71
2022/12/01 11:40:11;;;;;;;27.50;14.35;;;4.20;5.50;;;;;;7367072;19;20028;-71
2022/12/01 11:42:49;;;;;;;26.23;15.10;;;4.20;6.50;;;;;;7365367;19;20013;-72
2022/12/01 11:45:27;;;;;;;26.17;14.35;;;4.20;6.00;;;;;;7367667;19;20008;-72
2022/12/01 11:48:03;;;;;;;22.38;12.82;;;4.20;5.40;;;;;;7364936;19;20561;-72
2022/12/01 11:50:35;;;;;;;28.08;15.02;;;4.30;5.80;;;;;;7362073;19;20010;-70
2022/12/01 11:53:06;;;;;;;22.67;13.27;;;4.30;5.20;;;;;;7370591;19;20045;-71
2022/12/01 11:55:35;;;;;;;25.90;13.93;;;4.30;5.10;;;;;;7389436;19;20024;-72
2022/12/01 11:58:10;;;;;;;25.02;14.18;;;4.30;5.00;;;;;;7368638;19;20337;-71
2022/12/01 12:00:45;;;;;;;;;;;4.30;4.90;;;;;;7363813;19;20002;-71
2022/12/01 12:03:22;;;;;;;24.48;14.10;;;4.30;5.20;;;;;;7368644;19;19913;-70
2022/12/01 12:06:11;;;;;;;26.17;14.27;;;4.30;4.90;;;;;;7366291;19;20014;-70
2022/12/01 12:09:32;;;;;;;27.00;13.55;;;4.30;4.90;;;;;;7365183;19;20014;-70
2022/12/01 12:12:12;;;;;;;27.23;14.55;;;4.30;4.90;;;;;;7362680;19;20010;-71
2022/12/01 12:14:59;;;;;;;25.77;14.07;;;4.40;4.90;;;;;;7361423;19;20007;-71
2022/12/01 12:17:51;;;;;;;27.50;15.13;;;4.40;4.90;;;;;;7365375;19;20461;-70
2022/12/01 12:20:39;;;;;;;24.58;13.48;;;4.40;5.60;;;;;;7363075;19;20002;-71
2022/12/01 12:23:38;;;;;;;24.90;13.75;;;4.30;5.40;;;;;;7366314;19;20010;-70
2022/12/01 12:26:15;;;;;;;27.02;13.90;;;4.40;4.90;;;;;;7362605;19;20026;-71
2022/12/01 12:29:03;;;;;;;25.42;13.75;;;4.50;4.90;;;;;;7385199;19;20018;-71
2022/12/01 12:31:57;;;;;;;26.05;13.80;;;4.50;5.30;;;;;;7362596;19;20011;-70
2022/12/01 12:34:37;;;;;;;24.38;12.45;;;4.50;4.70;;;;;;7364016;19;20038;-71
2022/12/01 12:37:18;;;;;;;23.27;13.10;;;4.60;4.40;;;;;;7364684;19;20103;-71
2022/12/01 12:40:10;;;;;;;24.42;13.32;;;4.60;5.10;;;;;;7362503;19;20037;-69
2022/12/01 12:42:52;;;;;;;22.75;13.05;;;4.60;4.20;;;;;;7363871;19;20086;-71
2022/12/01 12:45:30;;;;;;;26.27;14.23;;;4.60;4.50;;;;;;7367257;19;20010;-71
2022/12/01 12:48:15;;;;;;;25.13;13.98;;;4.50;5.00;;;;;;7367219;19;20015;-71
2022/12/01 12:50:54;;;;;;;23.02;12.73;;;4.50;4.90;;;;;;7361787;19;20010;-70
2022/12/01 12:53:29;;;;;;;26.55;13.23;;;4.50;5.10;;;;;;7363507;19;20065;-71
2022/12/01 12:56:04;;;;;;;23.13;12.65;;;4.50;5.00;;;;;;7363103;19;20026;-70
2022/12/01 12:58:37;;;;;;;24.20;13.05;;;4.50;5.00;;;;;;7382428;19;20011;-71
2022/12/01 13:01:12;;;;;;;25.58;13.23;;;4.50;5.00;;;;;;7358113;19;20015;-72
2022/12/01 13:03:51;;;;;;;27.85;12.65;;;4.50;5.00;;;;;;7363941;19;20128;-71
2022/12/01 13:06:26;;;;;;;26.67;13.43;;;4.50;5.30;;;;;;7361697;19;20030;-71
2022/12/01 13:09:02;;;;;;;27.20;14.10;;;4.50;5.00;;;;;;7363617;19;20240;-71
2022/12/01 13:11:37;;;;;;;23.38;13.40;;;4.40;5.00;;;;;;7358351;19;20011;-71
2022/12/01 13:14:09;;;;;;;;;;;4.40;5.40;;;;;;7363320;19;20023;-71
2022/12/01 13:16:42;;;;;;;24.98;12.25;;;4.50;6.00;;;;;;7385319;19;19943;-71
2022/12/01 13:19:18;;;;;;;24.40;13.13;;;4.50;5.30;;;;;;7362210;19;20014;-71
2022/12/01 13:21:51;;;;;;;27.77;13.00;;;4.50;5.80;;;;;;7356013;19;20363;-71